Time;durP1;ratioP1;P1;durP2;ratioP2;P2;SDS_P1;SDS_P2;PMS_P1;PMS_P2;Temp;Humidity;BMP_temperature;BMP_pressure;BME280_temperature;BME280_humidity;BME280_pressure;Samples;Min_cycle;Max_cycle;Signal;HPM_P1;HPM_P2
2022/06/08 00:00:12;;;;;;;26.42;3.72;;;40.40;28.00;;;;;;5008644;28;20498;-70
2022/06/08 00:02:40;;;;;;;29.77;3.45;;;40.40;28.70;;;;;;4993832;28;20475;-67
2022/06/08 00:05:07;;;;;;;21.83;2.97;;;40.50;27.50;;;;;;5028860;28;20099;-68
2022/06/08 00:07:34;;;;;;;25.58;3.22;;;40.60;27.90;;;;;;5047939;28;20029;-70
2022/06/08 00:10:02;;;;;;;32.72;3.88;;;40.50;27.40;;;;;;5032548;28;20039;-68
2022/06/08 00:12:29;;;;;;;22.92;3.50;;;40.40;27.30;;;;;;5030800;28;20017;-72
2022/06/08 00:14:55;;;;;;;40.10;4.50;;;40.30;27.20;;;;;;5030809;28;20048;-70
2022/06/08 00:17:22;;;;;;;32.08;4.10;;;40.40;26.50;;;;;;5046206;28;20036;-71
2022/06/08 00:19:49;;;;;;;30.15;3.58;;;40.40;26.60;;;;;;5034118;28;20048;-72
2022/06/08 00:22:17;;;;;;;34.80;3.92;;;40.30;26.70;;;;;;5016086;28;20049;-71
2022/06/08 00:24:44;;;;;;;35.97;4.93;;;40.30;26.50;;;;;;5032588;28;20491;-69
2022/06/08 00:27:12;;;;;;;44.13;5.00;;;40.20;26.40;;;;;;5052052;28;20087;-71
2022/06/08 00:29:38;;;;;;;28.52;4.65;;;40.20;27.00;;;;;;5034265;28;20085;-72
2022/06/08 00:32:05;;;;;;;34.40;4.72;;;40.10;25.80;;;;;;5038328;28;20025;-70
2022/06/08 00:34:32;;;;;;;23.13;3.08;;;40.10;26.10;;;;;;5035484;28;20548;-71
2022/06/08 00:36:58;;;;;;;35.67;4.20;;;40.10;26.10;;;;;;5051570;28;20060;-68
2022/06/08 00:39:25;;;;;;;40.60;3.47;;;40.10;26.00;;;;;;5051944;28;20037;-71
2022/06/08 00:42:15;;;;;;;20.35;2.90;;;40.10;26.50;;;;;;5036129;28;20024;-70
2022/06/08 00:44:49;;;;;;;34.25;3.30;;;40.10;26.30;;;;;;5051073;28;20033;-65
2022/06/08 00:47:20;;;;;;;35.03;4.28;;;40.00;27.20;;;;;;5032341;28;20029;-67
2022/06/08 00:49:57;;;;;;;50.95;4.10;;;39.90;27.30;;;;;;5052770;28;20492;-68
2022/06/08 00:52:25;;;;;;;28.88;3.70;;;39.70;27.80;;;;;;5034613;28;20032;-69
2022/06/08 00:55:01;;;;;;;40.25;4.03;;;39.60;27.80;;;;;;5034720;28;20036;-67
2022/06/08 00:57:33;;;;;;;38.53;4.70;;;39.60;28.30;;;;;;5019581;28;20116;-69
2022/06/08 01:00:25;;;;;;;33.33;4.03;;;39.40;28.70;;;;;;5057809;23;20119;-66
2022/06/08 01:02:51;;;;;;;24.70;3.80;;;39.40;28.40;;;;;;5038037;28;20036;-68
2022/06/08 01:05:21;;;;;;;33.15;3.42;;;39.20;28.20;;;;;;5056843;28;20291;-67
2022/06/08 01:07:51;;;;;;;38.53;3.53;;;39.30;28.40;;;;;;5064130;28;20498;-68
2022/06/08 01:10:21;;;;;;;32.38;3.47;;;39.20;29.80;;;;;;5039564;28;20441;-69
2022/06/08 01:12:48;;;;;;;29.58;3.08;;;39.00;28.10;;;;;;5063042;28;20039;-69
2022/06/08 01:15:19;;;;;;;21.58;2.97;;;38.90;28.50;;;;;;5059733;28;20029;-66
2022/06/08 01:17:46;;;;;;;25.13;3.08;;;38.80;28.20;;;;;;5041736;28;20021;-67
2022/06/08 01:20:13;;;;;;;28.55;3.22;;;38.80;28.70;;;;;;5040247;28;20025;-67
2022/06/08 01:22:40;;;;;;;28.88;3.28;;;38.70;28.10;;;;;;5042609;28;20033;-67
2022/06/08 01:25:09;;;;;;;25.10;2.70;;;38.70;28.00;;;;;;5041430;28;20513;-67
2022/06/08 01:28:18;;;;;;;28.30;3.80;;;38.60;28.60;;;;;;5065069;28;20047;-67
2022/06/08 01:31:02;;;;;;;31.02;3.67;;;38.60;28.50;;;;;;5044017;28;20085;-67
2022/06/08 01:34:12;;;;;;;21.70;3.35;;;38.60;28.70;;;;;;5038051;28;20044;-66
2022/06/08 01:36:41;;;;;;;24.75;2.88;;;38.40;28.80;;;;;;5037508;28;20029;-66
2022/06/08 01:39:41;;;;;;;34.03;3.25;;;38.30;29.60;;;;;;5040997;28;20482;-69
2022/06/08 01:42:17;;;;;;;18.50;2.50;;;38.20;29.60;;;;;;5067547;28;20032;-64
2022/06/08 01:45:33;;;;;;;26.30;2.53;;;38.10;29.40;;;;;;5060758;28;20482;-65
2022/06/08 01:48:17;;;;;;;23.30;3.08;;;38.00;29.60;;;;;;4972606;28;20038;-67
2022/06/08 01:51:03;;;;;;;19.05;2.80;;;38.00;29.80;;;;;;4990286;28;20026;-67
2022/06/08 01:54:07;;;;;;;16.80;2.70;;;37.80;29.70;;;;;;4974765;28;20054;-67
2022/06/08 01:56:45;;;;;;;15.73;2.00;;;37.70;29.70;;;;;;4989553;28;20504;-67
2022/06/08 01:59:42;;;;;;;14.93;2.33;;;37.70;29.60;;;;;;4990101;28;20049;-64
2022/06/08 02:02:13;;;;;;;14.50;2.72;;;37.50;29.00;;;;;;4973487;28;20567;-65
2022/06/08 02:04:51;;;;;;;12.65;2.17;;;37.40;29.10;;;;;;4973545;28;20080;-67
2022/06/08 02:07:38;;;;;;;19.15;3.05;;;37.40;29.10;;;;;;4989370;28;20034;-67
2022/06/08 02:10:32;;;;;;;18.73;2.25;;;37.20;29.40;;;;;;4974052;28;20433;-66
2022/06/08 02:13:24;;;;;;;11.63;2.30;;;37.10;29.50;;;;;;4973159;28;20026;-67
2022/06/08 02:15:55;;;;;;;14.30;2.05;;;37.00;29.10;;;;;;4974723;28;20038;-66
2022/06/08 02:18:34;;;;;;;11.32;1.95;;;36.90;29.30;;;;;;4973864;28;20138;-66
2022/06/08 02:21:21;;;;;;;19.63;2.17;;;36.90;30.00;;;;;;4985801;28;20501;-66
2022/06/08 02:23:55;;;;;;;13.98;2.42;;;36.80;30.80;;;;;;5057342;28;20043;-68
2022/06/08 02:26:38;;;;;;;16.90;2.63;;;36.70;31.40;;;;;;5026794;28;20051;-66
2022/06/08 02:29:19;;;;;;;26.45;2.80;;;36.60;32.20;;;;;;5043154;28;20342;-66
2022/06/08 02:34:27;;;;;;;10.48;2.53;;;36.50;32.80;;;;;;5059420;28;20055;-66
2022/06/08 02:34:58;;;;;;;19.70;2.10;;;36.40;33.40;;;;;;5058510;28;20086;-66
2022/06/08 02:37:32;;;;;;;16.55;2.75;;;36.30;33.70;;;;;;5051460;28;20043;-66
2022/06/08 02:40:13;;;;;;;15.88;2.40;;;36.20;33.80;;;;;;5052077;28;20191;-65
2022/06/08 02:42:47;;;;;;;19.80;2.70;;;36.10;34.20;;;;;;5052066;28;20044;-66
2022/06/08 02:45:40;;;;;;;17.67;2.90;;;36.00;34.30;;;;;;5043710;28;20062;-66
2022/06/08 02:48:10;;;;;;;27.60;2.90;;;35.90;34.90;;;;;;5037931;28;20051;-68
2022/06/08 02:50:46;;;;;;;16.60;2.70;;;35.80;34.70;;;;;;5037667;28;20036;-66
2022/06/08 02:53:19;;;;;;;13.30;3.40;;;35.70;35.10;;;;;;5037107;28;20052;-68
2022/06/08 02:56:09;;;;;;;13.73;2.15;;;35.50;35.20;;;;;;5036726;28;20056;-68
2022/06/08 02:59:01;;;;;;;22.08;2.33;;;35.50;34.70;;;;;;5036857;28;20060;-67
2022/06/08 03:01:38;;;;;;;12.65;2.55;;;35.50;34.30;;;;;;5063852;28;20087;-71
2022/06/08 03:04:17;;;;;;;12.73;2.97;;;35.50;34.30;;;;;;5055014;28;20046;-67
2022/06/08 03:06:51;;;;;;;17.67;3.08;;;35.40;34.30;;;;;;5036965;28;20045;-68
2022/06/08 03:09:18;;;;;;;31.67;3.20;;;35.30;34.70;;;;;;5037111;28;20370;-67
2022/06/08 03:11:51;;;;;;;21.10;3.05;;;35.30;34.80;;;;;;5057582;28;20051;-67
2022/06/08 03:14:18;;;;;;;17.65;2.85;;;35.20;35.20;;;;;;5040437;28;20038;-67
2022/06/08 03:17:05;;;;;;;23.30;3.33;;;35.20;35.40;;;;;;5059778;28;20453;-68
2022/06/08 03:19:32;;;;;;;;;;;35.10;35.60;;;;;;5055376;28;20033;-68
2022/06/08 03:22:02;;;;;;;23.60;3.28;;;35.10;34.90;;;;;;5037053;28;19983;-70
2022/06/08 03:24:29;;;;;;;18.75;3.22;;;35.00;35.70;;;;;;5038052;28;20574;-67
2022/06/08 03:26:59;;;;;;;28.63;4.15;;;35.00;36.60;;;;;;5057392;28;20043;-69
2022/06/08 03:29:27;;;;;;;22.23;3.20;;;34.90;36.70;;;;;;5035252;28;20440;-67
2022/06/08 03:31:53;;;;;;;11.57;2.72;;;34.80;36.80;;;;;;5038217;28;20042;-68
2022/06/08 03:34:20;;;;;;;15.77;2.90;;;34.80;36.90;;;;;;5036840;28;20040;-69
2022/06/08 03:36:47;;;;;;;23.17;5.45;;;34.70;36.80;;;;;;5039171;28;20035;-68
2022/06/08 03:39:14;;;;;;;15.35;3.50;;;34.60;37.00;;;;;;5058373;28;20038;-67
2022/06/08 03:41:40;;;;;;;22.27;4.00;;;34.50;37.00;;;;;;5060264;28;20371;-68
2022/06/08 03:44:07;;;;;;;26.33;3.60;;;34.50;37.20;;;;;;5039080;28;20033;-68
2022/06/08 03:46:38;;;;;;;19.15;3.13;;;34.40;37.30;;;;;;5037339;28;20100;-69
2022/06/08 03:49:06;;;;;;;16.75;3.22;;;34.40;37.40;;;;;;5063855;28;20483;-67
2022/06/08 03:51:33;;;;;;;24.30;3.78;;;34.40;37.60;;;;;;5055050;28;20041;-66
2022/06/08 03:54:08;;;;;;;25.38;3.50;;;34.30;37.60;;;;;;5035243;28;20066;-67
2022/06/08 03:56:36;;;;;;;19.58;3.08;;;34.30;37.80;;;;;;5035380;28;20189;-68
2022/06/08 03:59:03;;;;;;;18.80;3.42;;;34.20;37.80;;;;;;5036660;28;20056;-70
2022/06/08 04:01:30;;;;;;;15.00;2.97;;;34.10;37.90;;;;;;5053131;28;20052;-67
2022/06/08 04:03:57;;;;;;;21.70;2.80;;;34.10;37.80;;;;;;5054671;28;20486;-66
2022/06/08 04:06:24;;;;;;;16.40;3.20;;;34.10;37.90;;;;;;5037235;28;20072;-66
2022/06/08 04:08:51;;;;;;;25.73;2.90;;;34.00;38.30;;;;;;5034427;28;20054;-67
2022/06/08 04:11:18;;;;;;;15.23;2.83;;;33.90;38.40;;;;;;5021419;28;20496;-68
2022/06/08 04:13:44;;;;;;;15.70;2.92;;;33.90;38.70;;;;;;5035885;28;20170;-67
2022/06/08 04:16:10;;;;;;;21.58;2.83;;;33.80;39.10;;;;;;5039656;28;20111;-68
2022/06/08 04:18:37;;;;;;;15.57;3.03;;;33.80;39.80;;;;;;5037611;28;20860;-68
2022/06/08 04:21:10;;;;;;;25.67;3.30;;;33.80;39.40;;;;;;5035322;28;20078;-68
2022/06/08 04:23:42;;;;;;;12.50;2.90;;;33.70;39.50;;;;;;5056357;28;20043;-66
2022/06/08 04:26:09;;;;;;;14.57;3.58;;;33.60;39.70;;;;;;5035859;28;20062;-66
2022/06/08 04:28:36;;;;;;;16.00;2.88;;;33.60;40.10;;;;;;5039554;28;20140;-65
2022/06/08 04:31:03;;;;;;;23.20;3.50;;;33.50;40.10;;;;;;5041009;28;20081;-67
2022/06/08 04:33:30;;;;;;;16.20;2.67;;;33.40;40.40;;;;;;5042100;28;20044;-67
2022/06/08 04:35:56;;;;;;;25.25;3.72;;;33.40;40.30;;;;;;5038677;28;20066;-66
2022/06/08 04:38:23;;;;;;;17.58;2.97;;;33.30;40.40;;;;;;5036768;28;20616;-68
2022/06/08 04:40:49;;;;;;;15.15;2.85;;;33.20;40.40;;;;;;5041513;28;20068;-67
2022/06/08 04:43:16;;;;;;;19.13;3.25;;;33.10;40.80;;;;;;5035568;28;20111;-68
2022/06/08 04:45:43;;;;;;;17.60;2.72;;;33.00;41.00;;;;;;5038415;28;20067;-66
2022/06/08 04:48:10;;;;;;;19.40;3.00;;;32.90;41.30;;;;;;5036240;28;20531;-67
2022/06/08 04:50:36;;;;;;;19.33;3.13;;;32.90;41.40;;;;;;5033113;28;20439;-66
2022/06/08 04:53:03;;;;;;;20.85;3.30;;;32.80;41.70;;;;;;5040824;28;20051;-69
2022/06/08 04:55:29;;;;;;;21.63;3.28;;;32.70;41.80;;;;;;5035977;28;20056;-67
2022/06/08 04:57:56;;;;;;;14.85;3.30;;;32.70;42.00;;;;;;5050904;28;20105;-68
2022/06/08 05:00:23;;;;;;;19.58;3.33;;;32.60;42.00;;;;;;5050785;28;20101;-68
2022/06/08 05:02:51;;;;;;;18.08;2.97;;;32.50;42.10;;;;;;5034037;28;20589;-69
2022/06/08 05:05:23;;;;;;;18.25;3.10;;;32.50;42.20;;;;;;5026651;28;20078;-67
2022/06/08 05:07:50;;;;;;;14.18;3.20;;;32.50;42.30;;;;;;5042276;28;20152;-68
2022/06/08 05:10:18;;;;;;;21.98;3.20;;;32.30;42.20;;;;;;5068367;28;20579;-66
2022/06/08 05:12:45;;;;;;;19.40;2.80;;;32.30;42.10;;;;;;5045336;28;20499;-66
2022/06/08 05:15:15;;;;;;;17.10;3.30;;;32.30;42.20;;;;;;5063993;28;20057;-68
2022/06/08 05:17:42;;;;;;;19.67;3.25;;;32.20;41.90;;;;;;5041795;28;20064;-68
2022/06/08 05:20:10;;;;;;;18.67;3.47;;;32.20;42.00;;;;;;5059381;28;20063;-67
2022/06/08 05:22:37;;;;;;;13.70;3.33;;;32.10;42.20;;;;;;5040005;28;20428;-67
2022/06/08 05:25:06;;;;;;;14.32;3.40;;;32.00;42.20;;;;;;5044240;28;20084;-68
2022/06/08 05:27:32;;;;;;;16.17;4.18;;;32.00;42.60;;;;;;5041697;28;20060;-62
2022/06/08 05:29:58;;;;;;;16.00;3.67;;;31.90;42.70;;;;;;5043274;28;20455;-66
2022/06/08 05:32:25;;;;;;;20.40;3.88;;;31.90;42.60;;;;;;5060437;28;20057;-64
2022/06/08 05:34:51;;;;;;;16.70;3.10;;;31.90;42.60;;;;;;5022927;28;20515;-63
2022/06/08 05:37:18;;;;;;;17.70;3.03;;;32.00;42.40;;;;;;5039858;28;20070;-61
2022/06/08 05:39:44;;;;;;;24.10;2.72;;;32.00;42.20;;;;;;5056224;28;20197;-64
2022/06/08 05:42:11;;;;;;;20.20;3.33;;;31.90;41.80;;;;;;5036333;28;20078;-63
2022/06/08 05:44:37;;;;;;;15.25;3.15;;;31.90;42.00;;;;;;5044860;28;20615;-65
2022/06/08 05:47:04;;;;;;;18.60;2.97;;;31.90;42.30;;;;;;5041156;28;20063;-63
2022/06/08 05:49:33;;;;;;;15.10;3.13;;;31.90;42.20;;;;;;5027367;28;20173;-64
2022/06/08 05:52:01;;;;;;;21.77;3.22;;;31.80;41.90;;;;;;5042576;28;20050;-65
2022/06/08 05:54:28;;;;;;;20.33;3.33;;;31.80;41.90;;;;;;5043364;28;20049;-64
2022/06/08 05:56:54;;;;;;;28.50;3.78;;;31.80;41.60;;;;;;5061210;28;20063;-61
2022/06/08 05:59:21;;;;;;;16.13;2.75;;;31.70;42.20;;;;;;5059451;28;20167;-60
2022/06/08 06:01:47;;;;;;;25.63;3.83;;;31.70;42.80;;;;;;5043168;28;20070;-61
2022/06/08 06:04:14;;;;;;;19.52;2.35;;;31.70;43.20;;;;;;5029673;28;20056;-63
2022/06/08 06:06:45;;;;;;;14.70;2.50;;;31.70;43.70;;;;;;5042346;28;19946;-64
2022/06/08 06:09:17;;;;;;;17.40;2.30;;;31.70;44.40;;;;;;5038595;28;20489;-63
2022/06/08 06:11:45;;;;;;;13.07;2.80;;;31.60;45.00;;;;;;5040345;28;20051;-64
2022/06/08 06:14:11;;;;;;;21.52;3.60;;;31.50;45.50;;;;;;5062462;28;20648;-64
2022/06/08 06:16:38;;;;;;;18.65;3.28;;;31.40;46.00;;;;;;5042955;28;20066;-63
2022/06/08 06:19:05;;;;;;;24.27;3.10;;;31.40;46.80;;;;;;5060879;28;20532;-64
2022/06/08 06:21:31;;;;;;;25.27;2.47;;;31.30;48.20;;;;;;5041957;28;20603;-63
2022/06/08 06:24:00;;;;;;;16.00;2.25;;;31.30;48.60;;;;;;5037918;28;20077;-63
2022/06/08 06:26:27;;;;;;;10.85;2.55;;;31.10;49.10;;;;;;5041763;28;20075;-65
2022/06/08 06:28:53;;;;;;;17.73;3.00;;;31.00;49.00;;;;;;5042830;28;20053;-64
2022/06/08 06:31:41;;;;;;;15.75;2.78;;;31.00;49.30;;;;;;5043924;28;20051;-63
2022/06/08 06:34:13;;;;;;;28.98;3.42;;;30.90;49.80;;;;;;5055523;28;20130;-64
2022/06/08 06:36:40;;;;;;;17.42;3.15;;;30.80;58.50;;;;;;5061728;28;20024;-64
2022/06/08 06:39:06;;;;;;;21.15;2.88;;;30.70;50.20;;;;;;5039077;28;20059;-64
2022/06/08 06:41:33;;;;;;;19.98;3.20;;;30.80;51.00;;;;;;5060227;28;20091;-64
2022/06/08 06:44:00;;;;;;;25.02;3.28;;;30.20;63.70;;;;;;5056854;28;20144;-64
2022/06/08 06:46:27;;;;;;;28.70;3.55;;;30.20;68.40;;;;;;5037648;28;20071;-65
2022/06/08 06:48:53;;;;;;;21.95;2.78;;;30.60;84.60;;;;;;5040719;28;20021;-64
2022/06/08 06:51:19;;;;;;;24.55;3.38;;;30.50;68.90;;;;;;5038944;28;20032;-64
2022/06/08 06:53:46;;;;;;;18.30;3.78;;;30.20;57.90;;;;;;5040667;28;20020;-65
2022/06/08 06:56:13;;;;;;;23.77;3.53;;;;;;;;;;5040943;28;20078;-63
2022/06/08 06:58:39;;;;;;;18.38;2.60;;;30.20;73.20;;;;;;5041266;28;20025;-63
2022/06/08 07:01:06;;;;;;;25.73;3.17;;;30.00;63.40;;;;;;5039068;28;20045;-64
2022/06/08 07:03:33;;;;;;;16.65;2.50;;;;;;;;;;5056215;28;20029;-63
2022/06/08 07:05:59;;;;;;;13.57;2.78;;;30.30;53.40;;;;;;5064370;28;20040;-64
2022/06/08 07:08:26;;;;;;;16.42;2.45;;;;;;;;;;5038833;28;20051;-63
2022/06/08 07:13:37;;;;;;;19.17;2.05;;;;;;;;;;5042743;28;20047;-63
2022/06/08 07:16:06;;;;;;;16.65;2.53;;;30.00;51.00;;;;;;5041698;28;20025;-63
2022/06/08 07:18:34;;;;;;;14.48;2.50;;;;;;;;;;5039688;28;20505;-63
2022/06/08 07:21:01;;;;;;;10.82;2.60;;;30.10;75.60;;;;;;5059707;28;20454;-63
2022/06/08 07:23:28;;;;;;;9.95;2.47;;;;;;;;;;5042008;28;20117;-63
2022/06/08 07:25:54;;;;;;;17.75;1.88;;;;;;;;;;5042561;28;20020;-63
2022/06/08 07:28:22;;;;;;;9.85;2.15;;;30.20;43.90;;;;;;5041638;28;20459;-63
2022/06/08 07:30:48;;;;;;;11.30;1.77;;;30.10;43.70;;;;;;5060406;28;20526;-64
2022/06/08 07:33:15;;;;;;;10.80;2.10;;;30.10;43.80;;;;;;5042669;28;20060;-61
2022/06/08 07:35:41;;;;;;;10.05;2.20;;;30.10;44.20;;;;;;5038582;28;20084;-62
2022/06/08 07:38:08;;;;;;;8.27;2.00;;;30.00;44.30;;;;;;5039754;28;20071;-64
2022/06/08 07:40:34;;;;;;;9.48;1.98;;;30.00;44.50;;;;;;5037748;28;20099;-63
2022/06/08 07:43:01;;;;;;;6.45;1.83;;;29.90;44.70;;;;;;5058015;28;20069;-63
2022/06/08 07:45:27;;;;;;;14.82;2.58;;;29.90;45.60;;;;;;5041939;28;20073;-65
2022/06/08 07:50:38;;;;;;;12.13;2.60;;;29.80;46.20;;;;;;5059338;28;20161;-60
2022/06/08 07:53:04;;;;;;;11.05;2.28;;;29.60;47.10;;;;;;5044572;28;20690;-63
2022/06/08 07:55:31;;;;;;;10.13;2.30;;;29.60;47.70;;;;;;5042570;28;20205;-62
2022/06/08 07:57:57;;;;;;;7.07;1.67;;;29.60;48.10;;;;;;5038233;28;20065;-62
2022/06/08 08:00:24;;;;;;;11.63;2.45;;;29.50;48.90;;;;;;5033370;28;20115;-64
2022/06/08 08:02:50;;;;;;;10.95;1.83;;;29.40;49.50;;;;;;5036205;28;20068;-65
2022/06/08 08:05:17;;;;;;;13.38;1.95;;;29.30;50.30;;;;;;5010319;28;20091;-65
2022/06/08 08:07:43;;;;;;;12.98;2.53;;;29.20;50.70;;;;;;5021525;28;20058;-64
2022/06/08 08:10:14;;;;;;;11.20;1.98;;;29.30;51.10;;;;;;5040650;28;20105;-64
2022/06/08 08:12:41;;;;;;;9.13;2.10;;;29.20;52.20;;;;;;5039551;28;20526;-64
2022/06/08 08:15:08;;;;;;;11.32;2.70;;;29.20;52.00;;;;;;5035693;28;20078;-64
2022/06/08 08:17:35;;;;;;;14.38;2.95;;;29.10;52.30;;;;;;5046056;28;20171;-66
2022/06/08 08:20:04;;;;;;;11.90;2.67;;;29.00;53.10;;;;;;5039202;28;20128;-66
2022/06/08 08:22:33;;;;;;;11.63;2.85;;;28.90;53.60;;;;;;5038088;28;20437;-64
2022/06/08 08:24:59;;;;;;;12.30;3.03;;;28.90;54.10;;;;;;5036156;28;20087;-66
2022/06/08 08:27:26;;;;;;;11.38;2.40;;;28.80;54.70;;;;;;5034182;28;20511;-64
2022/06/08 08:29:52;;;;;;;8.07;2.95;;;28.80;55.50;;;;;;5033282;28;20084;-62
2022/06/08 08:32:19;;;;;;;15.60;3.42;;;28.80;55.90;;;;;;5038054;28;20073;-62
2022/06/08 08:34:45;;;;;;;9.60;2.63;;;28.80;56.40;;;;;;5036678;28;20070;-62
2022/06/08 08:37:11;;;;;;;9.63;2.78;;;28.70;57.00;;;;;;5038996;28;20074;-63
2022/06/08 08:39:38;;;;;;;11.35;3.05;;;28.70;58.50;;;;;;5037814;28;20536;-63
2022/06/08 08:42:20;;;;;;;14.75;3.60;;;28.60;59.10;;;;;;5041192;28;20152;-62
2022/06/08 08:44:50;;;;;;;8.77;3.15;;;28.40;60.60;;;;;;5040535;28;20219;-62
2022/06/08 08:47:35;;;;;;;10.10;2.65;;;28.50;62.50;;;;;;5039481;28;20074;-62
2022/06/08 08:50:14;;;;;;;12.65;2.72;;;28.50;63.90;;;;;;5039539;28;20080;-63
2022/06/08 08:53:12;;;;;;;8.68;2.50;;;28.50;65.30;;;;;;5041696;28;20070;-63
2022/06/08 08:55:47;;;;;;;10.75;3.10;;;28.40;66.50;;;;;;5031931;28;20712;-64
2022/06/08 08:58:18;;;;;;;8.38;2.63;;;28.40;67.10;;;;;;5038278;28;20076;-63
2022/06/08 09:01:00;;;;;;;14.02;2.92;;;28.30;68.00;;;;;;5066382;28;20129;-62
2022/06/08 09:03:31;;;;;;;13.63;2.85;;;28.30;69.40;;;;;;5047909;28;20438;-65
2022/06/08 09:06:11;;;;;;;11.10;2.47;;;28.30;70.20;;;;;;5041878;28;20180;-63
2022/06/08 09:08:51;;;;;;;8.48;2.78;;;28.20;71.10;;;;;;5043367;28;20082;-66
2022/06/08 09:11:31;;;;;;;12.50;5.50;;;28.10;72.10;;;;;;5038302;28;20066;-66
2022/06/08 09:14:08;;;;;;;16.33;3.70;;;28.30;72.60;;;;;;5035832;28;20631;-65
2022/06/08 09:16:39;;;;;;;11.48;2.72;;;28.50;72.20;;;;;;5049363;28;20074;-65
2022/06/08 09:19:31;;;;;;;8.52;3.20;;;28.80;70.80;;;;;;5040284;28;20066;-64
2022/06/08 09:22:04;;;;;;;11.85;3.90;;;28.70;70.50;;;;;;5042549;28;20086;-64
2022/06/08 09:24:42;;;;;;;14.35;4.00;;;28.60;70.90;;;;;;5063119;28;20065;-66
2022/06/08 09:27:25;;;;;;;12.43;3.17;;;28.40;72.10;;;;;;5061326;28;20072;-64
2022/06/08 09:30:12;;;;;;;12.95;3.30;;;28.50;72.40;;;;;;5044334;28;20069;-65
2022/06/08 09:32:41;;;;;;;;;;;28.20;72.80;;;;;;5040918;28;20077;-64
2022/06/08 09:35:29;;;;;;;10.88;3.17;;;28.40;73.00;;;;;;5038073;28;20347;-65
2022/06/08 09:38:05;;;;;;;13.18;3.30;;;28.50;72.00;;;;;;5040326;28;20527;-64
2022/06/08 09:40:41;;;;;;;12.48;2.95;;;28.50;72.20;;;;;;5039680;28;20554;-64
2022/06/08 09:43:09;;;;;;;14.25;3.15;;;28.50;72.00;;;;;;5039275;28;20156;-64
2022/06/08 09:45:51;;;;;;;10.13;3.00;;;28.60;72.20;;;;;;5043660;28;20078;-64
2022/06/08 09:52:20;;;;;;;11.57;2.50;;;28.20;73.40;;;;;;5036829;28;20073;-66
2022/06/08 09:55:23;;;;;;;14.68;2.63;;;28.00;74.60;;;;;;5038159;28;20073;-64
2022/06/08 09:57:58;;;;;;;11.10;2.42;;;28.10;72.70;;;;;;5035808;28;20126;-64
2022/06/08 10:00:44;;;;;;;10.45;2.67;;;27.90;73.00;;;;;;5038350;28;20164;-64
2022/06/08 10:03:29;;;;;;;11.73;2.57;;;27.90;73.20;;;;;;5025582;28;20089;-65
2022/06/08 10:06:36;;;;;;;11.43;2.20;;;27.80;72.80;;;;;;5064306;28;20090;-65
2022/06/08 10:09:36;;;;;;;7.97;2.15;;;27.60;72.30;;;;;;5047825;28;20086;-64
2022/06/08 10:12:15;;;;;;;8.18;2.17;;;27.60;72.20;;;;;;5040983;28;20406;-66
2022/06/08 10:14:45;;;;;;;7.78;2.17;;;27.60;72.20;;;;;;5040787;28;20432;-64
2022/06/08 10:17:46;;;;;;;9.50;2.42;;;27.90;70.90;;;;;;5039954;28;20217;-65
2022/06/08 10:20:19;;;;;;;7.13;2.05;;;27.60;70.30;;;;;;5038837;28;20096;-64
2022/06/08 10:22:49;;;;;;;10.00;2.03;;;27.50;71.20;;;;;;5044636;28;20068;-64
2022/06/08 10:25:16;;;;;;;8.13;2.78;;;27.50;71.00;;;;;;5040533;28;20086;-65
2022/06/08 10:27:56;;;;;;;8.57;2.10;;;27.40;69.40;;;;;;5035999;28;20071;-65
2022/06/08 10:30:34;;;;;;;9.18;2.40;;;27.10;69.40;;;;;;5041526;28;20079;-62
2022/06/08 10:33:25;;;;;;;19.25;2.78;;;27.30;69.30;;;;;;5038308;28;20098;-64
2022/06/08 10:35:55;;;;;;;8.00;2.17;;;27.10;68.60;;;;;;5046827;28;20074;-65
2022/06/08 10:38:34;;;;;;;13.70;2.50;;;27.10;68.30;;;;;;5039499;28;20113;-66
2022/06/08 10:44:01;;;;;;;10.25;2.15;;;27.00;68.10;;;;;;5002106;28;20080;-64
2022/06/08 10:46:47;;;;;;;7.30;2.13;;;26.80;67.10;;;;;;5038534;28;20085;-64
2022/06/08 10:49:31;;;;;;;11.65;2.53;;;26.80;67.40;;;;;;5059656;28;20087;-64
2022/06/08 10:52:24;;;;;;;7.13;2.30;;;26.80;66.70;;;;;;5038753;28;20102;-64
2022/06/08 10:54:54;;;;;;;8.65;2.13;;;26.70;66.20;;;;;;5037771;28;20087;-65
2022/06/08 10:57:42;;;;;;;8.70;2.13;;;26.70;66.50;;;;;;5045499;28;20067;-64
2022/06/08 11:00:23;;;;;;;9.90;2.25;;;26.70;66.00;;;;;;5051338;28;20107;-66
2022/06/08 11:03:02;;;;;;;6.35;2.15;;;26.60;66.60;;;;;;5041411;28;20122;-63
2022/06/08 11:05:39;;;;;;;11.52;1.90;;;26.50;67.00;;;;;;5063032;28;20091;-65
2022/06/08 11:08:12;;;;;;;8.40;2.45;;;26.40;67.40;;;;;;5041162;28;20527;-65
2022/06/08 11:10:46;;;;;;;9.88;2.50;;;26.30;67.80;;;;;;5036472;28;20561;-64
2022/06/08 11:13:22;;;;;;;8.05;2.08;;;26.20;68.70;;;;;;5036901;28;20167;-66
2022/06/08 11:16:07;;;;;;;14.90;2.83;;;26.10;69.60;;;;;;5041159;28;20570;-65
2022/06/08 11:18:55;;;;;;;7.45;2.35;;;26.20;69.80;;;;;;5038891;28;20080;-65
2022/06/08 11:21:51;;;;;;;10.20;2.83;;;26.30;69.20;;;;;;5035774;28;20096;-64
2022/06/08 11:24:45;;;;;;;13.20;2.45;;;26.10;69.60;;;;;;5038733;28;20078;-64
2022/06/08 11:27:14;;;;;;;14.80;3.38;;;26.20;69.50;;;;;;5037211;28;20076;-64
2022/06/08 11:29:46;;;;;;;11.63;2.47;;;26.20;69.60;;;;;;5041623;28;20070;-64
2022/06/08 11:32:25;;;;;;;12.25;3.13;;;26.10;70.10;;;;;;5063130;28;20075;-64
2022/06/08 11:35:11;;;;;;;11.07;2.88;;;26.10;71.30;;;;;;5031267;28;20080;-65
2022/06/08 11:38:07;;;;;;;16.80;3.20;;;26.10;71.30;;;;;;5060963;28;20129;-65
2022/06/08 11:40:35;;;;;;;13.50;3.55;;;26.10;72.20;;;;;;5037032;28;20093;-65
2022/06/08 11:43:14;;;;;;;14.23;3.35;;;26.10;72.10;;;;;;5045697;28;20715;-66
2022/06/08 11:45:43;;;;;;;13.15;3.38;;;26.00;73.10;;;;;;5045418;28;20542;-65
2022/06/08 11:48:20;;;;;;;20.17;4.05;;;26.00;73.30;;;;;;5037295;28;20098;-64
2022/06/08 11:50:49;;;;;;;13.30;3.05;;;25.90;73.00;;;;;;5040959;28;20531;-64
2022/06/08 11:53:36;;;;;;;7.05;2.67;;;25.90;73.10;;;;;;5045485;28;20083;-64
2022/06/08 11:56:09;;;;;;;12.25;3.22;;;25.70;74.40;;;;;;5035640;28;20145;-65
2022/06/08 11:58:37;;;;;;;14.95;3.50;;;25.80;74.10;;;;;;5038708;28;20119;-65
2022/06/08 12:01:15;;;;;;;10.10;3.35;;;26.00;73.70;;;;;;5036101;28;20835;-63
2022/06/08 12:03:49;;;;;;;16.95;3.60;;;26.20;72.90;;;;;;5034206;28;20074;-64
2022/06/08 12:06:23;;;;;;;11.95;3.47;;;26.20;73.20;;;;;;5026846;28;20241;-64
2022/06/08 12:09:20;;;;;;;10.68;3.30;;;25.90;73.90;;;;;;5050619;28;20103;-64
2022/06/08 12:11:53;;;;;;;14.63;3.45;;;25.80;75.10;;;;;;5035546;28;20080;-64
2022/06/08 12:14:25;;;;;;;15.02;2.83;;;25.80;75.50;;;;;;5033181;28;20506;-63
2022/06/08 12:17:00;;;;;;;7.78;2.63;;;25.70;76.00;;;;;;5051311;28;20075;-65
2022/06/08 12:19:54;;;;;;;15.00;3.42;;;25.70;75.60;;;;;;5064283;28;20217;-66
2022/06/08 12:22:29;;;;;;;13.60;3.20;;;25.70;76.00;;;;;;5040363;28;20080;-65
2022/06/08 12:25:15;;;;;;;18.05;2.80;;;25.70;75.80;;;;;;5040124;28;20088;-64
2022/06/08 12:28:21;;;;;;;13.85;3.22;;;25.80;75.60;;;;;;5049364;28;20071;-65
2022/06/08 12:30:47;;;;;;;10.27;3.22;;;25.80;75.70;;;;;;5037389;28;20066;-65
2022/06/08 12:33:17;;;;;;;14.65;3.00;;;25.60;75.90;;;;;;5045848;28;20096;-65
2022/06/08 12:35:56;;;;;;;12.38;3.15;;;25.70;75.80;;;;;;5044117;28;20086;-65
2022/06/08 12:38:30;;;;;;;16.20;3.63;;;25.70;75.50;;;;;;5040575;28;20163;-65
2022/06/08 12:41:04;;;;;;;18.80;4.38;;;25.70;75.80;;;;;;5026258;28;20068;-65
2022/06/08 12:43:37;;;;;;;19.80;4.78;;;25.70;76.00;;;;;;5042306;28;20076;-64
2022/06/08 12:46:28;;;;;;;12.70;3.63;;;25.70;76.50;;;;;;5064466;28;20452;-64
2022/06/08 12:48:55;;;;;;;11.45;3.33;;;25.60;77.00;;;;;;5041416;28;20141;-65
2022/06/08 12:51:23;;;;;;;18.27;4.47;;;25.40;77.70;;;;;;5049795;28;20068;-62
2022/06/08 12:53:50;;;;;;;23.55;3.70;;;25.60;77.60;;;;;;5053802;28;20159;-63
2022/06/08 12:56:18;;;;;;;18.33;3.50;;;25.70;78.10;;;;;;5043666;28;20076;-63
2022/06/08 12:58:46;;;;;;;19.85;4.43;;;25.70;77.60;;;;;;5039760;28;20441;-65
2022/06/08 13:01:13;;;;;;;24.08;4.35;;;25.80;77.70;;;;;;5038966;28;20519;-65
2022/06/08 13:03:41;;;;;;;20.73;5.10;;;25.80;77.60;;;;;;5043785;28;20482;-64
2022/06/08 13:06:08;;;;;;;21.83;5.57;;;25.70;77.90;;;;;;5041628;28;20100;-64
2022/06/08 13:08:35;;;;;;;24.63;4.88;;;25.90;77.70;;;;;;5040348;28;20073;-64
2022/06/08 13:11:06;;;;;;;17.77;3.97;;;25.90;77.40;;;;;;5035411;28;20069;-64
2022/06/08 13:13:38;;;;;;;24.20;3.95;;;25.70;77.60;;;;;;5037944;28;20065;-64
2022/06/08 13:16:14;;;;;;;20.23;4.20;;;25.80;77.70;;;;;;5034700;28;20079;-64
2022/06/08 13:18:40;;;;;;;27.23;4.50;;;25.70;78.20;;;;;;5048454;28;20114;-64
2022/06/08 13:21:07;;;;;;;20.90;4.25;;;25.80;78.20;;;;;;5035013;28;20100;-64
2022/06/08 13:23:37;;;;;;;16.15;4.07;;;25.70;78.40;;;;;;5036313;28;20130;-64